createdAt,value
2018-09-28T00:01:57.242Z,4.00
2018-09-28T00:04:26.579Z,4.60
2018-09-28T00:06:55.783Z,3.87
2018-09-28T00:09:24.981Z,4.10
2018-09-28T00:11:54.218Z,4.07
2018-09-28T00:14:23.454Z,4.10
2018-09-28T00:16:52.726Z,3.57
2018-09-28T00:19:23.211Z,3.70
2018-09-28T00:21:52.453Z,4.00
2018-09-28T00:24:21.675Z,4.37
2018-09-28T00:26:50.894Z,3.58
2018-09-28T00:29:20.127Z,3.77
2018-09-28T00:31:49.333Z,4.10
2018-09-28T00:34:18.560Z,4.10
2018-09-28T00:36:47.803Z,4.20
2018-09-28T00:39:17.006Z,4.30
2018-09-28T00:41:46.239Z,3.63
2018-09-28T00:44:15.455Z,3.70
2018-09-28T00:46:44.667Z,3.77
2018-09-28T00:49:13.891Z,3.73
2018-09-28T00:51:43.138Z,3.73
2018-09-28T00:54:12.346Z,3.70
2018-09-28T00:56:41.577Z,4.53
2018-09-28T00:59:10.789Z,3.57
2018-09-28T01:01:40.017Z,3.60
2018-09-28T01:04:09.219Z,3.70
2018-09-28T01:06:38.438Z,3.33
2018-09-28T01:09:10.534Z,3.40
2018-09-28T01:11:39.746Z,3.70
2018-09-28T01:14:08.958Z,3.65
2018-09-28T01:16:38.171Z,3.53
2018-09-28T01:19:07.495Z,3.37
2018-09-28T01:21:36.704Z,3.50
2018-09-28T01:24:05.971Z,3.50
2018-09-28T01:26:35.210Z,3.70
2018-09-28T01:29:04.571Z,4.10
2018-09-28T01:31:33.803Z,4.10
2018-09-28T01:34:03.016Z,3.60
2018-09-28T01:36:32.246Z,3.53
2018-09-28T01:39:01.470Z,4.27
2018-09-28T01:41:30.670Z,3.35
2018-09-28T01:43:59.903Z,3.73
2018-09-28T01:46:29.138Z,3.40
2018-09-28T01:48:58.342Z,3.67
2018-09-28T01:51:27.589Z,3.73
2018-09-28T01:53:56.822Z,3.53
2018-09-28T01:56:26.052Z,3.47
2018-09-28T01:58:55.278Z,3.43
2018-09-28T02:01:24.658Z,3.30
2018-09-28T02:03:54.252Z,3.17
2018-09-28T02:06:23.476Z,3.07
2018-09-28T02:08:53.548Z,3.40
2018-09-28T02:11:22.775Z,3.33
2018-09-28T02:13:51.993Z,3.37
2018-09-28T02:16:21.407Z,3.20
2018-09-28T02:18:50.661Z,3.35
2018-09-28T02:21:19.851Z,3.60
2018-09-28T02:23:49.074Z,3.30
2018-09-28T02:26:18.342Z,3.40
2018-09-28T02:28:47.607Z,3.20
2018-09-28T02:31:16.838Z,3.13
2018-09-28T02:33:46.071Z,3.60
2018-09-28T02:36:15.378Z,3.07
2018-09-28T02:38:44.611Z,3.40
2018-09-28T02:41:13.828Z,3.17
2018-09-28T02:43:43.093Z,3.23
2018-09-28T02:46:12.289Z,3.15
2018-09-28T02:48:41.518Z,3.30
2018-09-28T02:51:10.784Z,3.45
2018-09-28T02:53:40.012Z,3.07
2018-09-28T02:56:09.212Z,3.00
2018-09-28T02:58:38.431Z,3.20
2018-09-28T03:01:07.668Z,2.93
2018-09-28T03:03:36.903Z,3.12
2018-09-28T03:06:06.124Z,2.97
2018-09-28T03:08:35.323Z,3.13
2018-09-28T03:11:04.539Z,3.07
2018-09-28T03:13:33.751Z,2.83
2018-09-28T03:16:02.976Z,2.98
2018-09-28T03:18:32.184Z,2.87
2018-09-28T03:21:01.411Z,3.07
2018-09-28T03:23:30.627Z,2.93
2018-09-28T03:25:59.908Z,3.23
2018-09-28T03:28:29.074Z,3.15
2018-09-28T03:30:58.290Z,3.30
2018-09-28T03:33:28.762Z,3.00
2018-09-28T03:35:58.119Z,3.23
2018-09-28T03:38:27.345Z,3.20
2018-09-28T03:40:56.543Z,2.77
2018-09-28T03:43:25.774Z,3.10
2018-09-28T03:45:54.987Z,3.43
2018-09-28T03:48:24.323Z,2.90
2018-09-28T03:50:53.535Z,3.43
2018-09-28T03:53:22.750Z,3.17
2018-09-28T03:55:51.995Z,2.97
2018-09-28T03:58:21.217Z,3.10
2018-09-28T04:00:50.622Z,2.97
2018-09-28T04:03:19.847Z,3.40
2018-09-28T04:05:49.079Z,2.87
2018-09-28T04:08:18.308Z,3.00
2018-09-28T04:10:47.524Z,3.33
2018-09-28T04:13:16.751Z,3.27
2018-09-28T04:15:45.971Z,3.63
2018-09-28T04:18:15.180Z,3.07
2018-09-28T04:20:44.412Z,3.00
2018-09-28T04:23:13.650Z,3.00
2018-09-28T04:25:42.871Z,3.80
2018-09-28T04:28:12.102Z,3.10
2018-09-28T04:30:41.316Z,3.10
2018-09-28T04:33:10.532Z,3.07
2018-09-28T04:35:39.751Z,3.23
2018-09-28T04:38:08.976Z,3.37
2018-09-28T04:40:38.206Z,3.90
2018-09-28T04:43:07.447Z,3.90
2018-09-28T04:45:36.701Z,4.40
2018-09-28T04:48:05.895Z,4.70
2018-09-28T04:50:35.151Z,4.40
2018-09-28T04:53:04.376Z,4.20
2018-09-28T04:55:33.626Z,4.17
2018-09-28T04:58:02.862Z,3.62
2018-09-28T05:00:32.072Z,4.00
2018-09-28T05:03:01.295Z,3.90
2018-09-28T05:05:30.519Z,3.80
2018-09-28T05:07:59.735Z,3.77
2018-09-28T05:10:28.990Z,3.57
2018-09-28T05:12:58.246Z,3.27
2018-09-28T05:15:30.258Z,3.58
2018-09-28T05:17:59.491Z,3.27
2018-09-28T05:20:29.199Z,3.12
2018-09-28T05:22:58.410Z,3.07
2018-09-28T05:25:27.666Z,2.70
2018-09-28T05:27:56.830Z,2.93
2018-09-28T05:30:26.039Z,2.93
2018-09-28T05:32:55.370Z,2.70
2018-09-28T05:35:24.519Z,2.90
2018-09-28T05:37:53.742Z,3.50
2018-09-28T05:40:22.970Z,3.23
2018-09-28T05:42:52.229Z,3.20
2018-09-28T05:45:21.430Z,3.20
2018-09-28T05:47:50.638Z,3.50
2018-09-28T05:50:19.855Z,3.27
2018-09-28T05:52:49.072Z,3.70
2018-09-28T05:55:18.279Z,3.30
2018-09-28T05:57:47.507Z,2.83
2018-09-28T06:00:21.962Z,3.00
2018-09-28T06:02:56.551Z,3.40
2018-09-28T06:05:30.918Z,2.80
2018-09-28T06:08:00.113Z,2.50
2018-09-28T06:10:29.338Z,2.33
2018-09-28T06:12:58.575Z,2.07
2018-09-28T06:15:27.795Z,2.20
2018-09-28T06:17:57.104Z,2.00
2018-09-28T06:20:26.314Z,2.20
2018-09-28T06:22:55.601Z,1.80
2018-09-28T06:25:24.831Z,1.87
2018-09-28T06:27:55.263Z,1.80
2018-09-28T06:30:30.923Z,1.97
2018-09-28T06:33:00.201Z,1.93
2018-09-28T06:35:29.465Z,1.97
2018-09-28T06:37:58.694Z,2.12
2018-09-28T06:40:27.935Z,2.00
2018-09-28T06:42:58.412Z,2.00
2018-09-28T06:45:27.639Z,2.10
2018-09-28T06:47:57.102Z,2.10
2018-09-28T06:50:26.147Z,2.60
2018-09-28T06:52:55.424Z,2.33
2018-09-28T06:55:24.652Z,2.30
2018-09-28T06:57:53.866Z,2.57
2018-09-28T07:00:23.160Z,2.30
2018-09-28T07:02:52.318Z,2.73
2018-09-28T07:05:21.555Z,2.30
2018-09-28T07:07:50.827Z,2.50
2018-09-28T07:10:20.055Z,2.50
2018-09-28T07:12:49.271Z,2.50
2018-09-28T07:15:18.522Z,2.63
2018-09-28T07:17:48.028Z,2.60
2018-09-28T07:20:17.195Z,2.80
2018-09-28T07:22:46.421Z,2.67
2018-09-28T07:25:15.895Z,2.50
2018-09-28T07:27:44.990Z,2.80
2018-09-28T07:30:14.274Z,2.70
2018-09-28T07:32:43.585Z,2.65
2018-09-28T07:35:12.854Z,2.70
2018-09-28T07:37:42.094Z,2.57
2018-09-28T07:40:11.308Z,2.98
2018-09-28T07:42:40.523Z,3.20
2018-09-28T07:45:09.739Z,2.85
2018-09-28T07:47:39.000Z,3.00
2018-09-28T07:50:08.182Z,2.33
2018-09-28T07:52:37.432Z,2.65
2018-09-28T07:55:06.643Z,2.50
2018-09-28T07:57:35.851Z,2.33
2018-09-28T08:00:05.110Z,2.37
2018-09-28T08:02:34.486Z,2.00
2018-09-28T08:05:03.720Z,2.50
2018-09-28T08:07:32.946Z,2.50
2018-09-28T08:10:02.325Z,2.43
2018-09-28T08:12:31.482Z,2.20
2018-09-28T08:15:00.719Z,2.27
2018-09-28T08:17:30.050Z,2.40
2018-09-28T08:19:59.267Z,2.00
2018-09-28T08:22:28.499Z,2.07
2018-09-28T08:24:57.843Z,2.47
2018-09-28T08:27:27.055Z,2.55
2018-09-28T08:29:56.278Z,2.22
2018-09-28T08:32:25.527Z,2.45
2018-09-28T08:34:54.920Z,2.40
2018-09-28T08:37:24.144Z,2.40
2018-09-28T08:39:53.365Z,2.55
2018-09-28T08:42:22.586Z,2.67
2018-09-28T08:44:51.787Z,3.10
2018-09-28T08:47:21.007Z,2.50
2018-09-28T08:49:50.247Z,2.70
2018-09-28T08:52:19.449Z,2.83
2018-09-28T08:54:48.687Z,7.08
2018-09-28T08:57:17.911Z,3.00
2018-09-28T08:59:47.122Z,3.00
2018-09-28T09:02:16.369Z,2.90
2018-09-28T09:04:45.561Z,3.00
2018-09-28T09:07:14.782Z,3.33
2018-09-28T09:09:44.245Z,2.90
2018-09-28T09:12:13.467Z,3.10
2018-09-28T09:14:42.678Z,3.25
2018-09-28T09:17:11.911Z,3.20
2018-09-28T09:19:41.142Z,3.08
2018-09-28T09:22:10.356Z,3.35
2018-09-28T09:24:39.574Z,3.50
2018-09-28T09:27:08.783Z,3.20
2018-09-28T09:29:37.999Z,3.40
2018-09-28T09:32:07.207Z,3.20
2018-09-28T09:34:36.417Z,3.60
2018-09-28T09:37:05.659Z,3.03
2018-09-28T09:39:34.867Z,2.93
2018-09-28T09:42:04.083Z,2.83
2018-09-28T09:44:33.295Z,3.27
2018-09-28T09:47:02.514Z,2.80
2018-09-28T09:49:31.726Z,3.47
2018-09-28T09:52:00.947Z,3.17
2018-09-28T09:54:30.175Z,3.47
2018-09-28T09:56:59.395Z,3.10
2018-09-28T09:59:28.635Z,2.90
2018-09-28T10:02:02.975Z,2.90
2018-09-28T10:04:32.238Z,3.10
2018-09-28T10:07:02.362Z,3.06
2018-09-28T10:09:31.641Z,2.90
2018-09-28T10:12:00.819Z,3.17
2018-09-28T10:14:30.039Z,2.80
2018-09-28T10:16:59.250Z,3.15
2018-09-28T10:19:28.503Z,3.15
2018-09-28T10:21:57.706Z,2.90
2018-09-28T10:24:26.926Z,2.70
2018-09-28T10:26:56.204Z,2.97
2018-09-28T10:29:25.389Z,2.72
2018-09-28T10:31:54.590Z,2.87
2018-09-28T10:34:23.905Z,2.70
2018-09-28T10:36:53.033Z,2.70
2018-09-28T10:39:22.294Z,2.93
2018-09-28T10:41:51.475Z,2.67
2018-09-28T10:44:20.701Z,2.60
2018-09-28T10:46:49.929Z,2.85
2018-09-28T10:49:19.196Z,2.77
2018-09-28T10:51:48.486Z,2.77
2018-09-28T10:54:17.667Z,2.83
2018-09-28T10:56:46.890Z,2.42
2018-09-28T10:59:16.119Z,2.67
2018-09-28T11:01:45.383Z,2.30
2018-09-28T11:04:14.668Z,2.47
2018-09-28T11:06:43.879Z,2.47
2018-09-28T11:09:13.534Z,3.00
2018-09-28T11:11:43.041Z,2.77
2018-09-28T11:14:12.266Z,2.60
2018-09-28T11:16:41.581Z,2.33
2018-09-28T11:19:11.926Z,2.58
2018-09-28T11:21:41.189Z,2.50
2018-09-28T11:24:10.389Z,2.70
2018-09-28T11:26:39.614Z,2.60
2018-09-28T11:29:08.935Z,2.75
2018-09-28T11:31:38.167Z,2.70
2018-09-28T11:34:07.379Z,2.95
2018-09-28T11:36:36.595Z,2.60
2018-09-28T11:39:07.065Z,2.80
2018-09-28T11:41:36.366Z,2.93
2018-09-28T11:44:06.826Z,2.65
2018-09-28T11:46:36.071Z,2.80
2018-09-28T11:49:05.378Z,2.80
2018-09-28T11:51:34.548Z,2.80
2018-09-28T11:54:03.778Z,2.40
2018-09-28T11:56:33.003Z,2.80
2018-09-28T11:59:02.211Z,2.67
2018-09-28T12:01:31.440Z,2.50
2018-09-28T12:04:00.674Z,2.50
2018-09-28T12:06:30.037Z,3.05
2018-09-28T12:08:59.141Z,3.33
2018-09-28T12:11:28.374Z,2.98
2018-09-28T12:13:57.611Z,3.00
2018-09-28T12:16:26.835Z,3.00
2018-09-28T12:18:56.198Z,3.00
2018-09-28T12:21:25.493Z,3.08
2018-09-28T12:23:54.624Z,2.80
2018-09-28T12:26:23.873Z,2.70
2018-09-28T12:28:53.078Z,2.73
2018-09-28T12:31:22.281Z,2.90
2018-09-28T12:33:51.529Z,2.80
2018-09-28T12:36:20.784Z,3.27
2018-09-28T12:38:49.983Z,3.00
2018-09-28T12:41:19.207Z,2.70
2018-09-28T12:43:48.439Z,3.12
2018-09-28T12:46:17.642Z,3.27
2018-09-28T12:48:46.929Z,3.33
2018-09-28T12:51:16.087Z,2.93
2018-09-28T12:53:45.407Z,3.93
2018-09-28T12:56:15.503Z,2.84
2018-09-28T12:58:44.666Z,3.02
2018-09-28T13:01:14.041Z,2.70
2018-09-28T13:03:43.151Z,2.40
2018-09-28T13:06:12.650Z,2.62
2018-09-28T13:08:41.910Z,3.37
2018-09-28T13:11:11.123Z,2.67
2018-09-28T13:13:40.350Z,2.87
2018-09-28T13:16:09.667Z,2.50
2018-09-28T13:18:38.915Z,2.72
2018-09-28T13:21:08.177Z,2.80
2018-09-28T13:23:37.379Z,2.65
2018-09-28T13:26:06.693Z,2.90
2018-09-28T13:28:35.914Z,2.57
2018-09-28T13:31:05.155Z,2.80
2018-09-28T13:33:34.390Z,2.87
2018-09-28T13:36:03.616Z,2.80
2018-09-28T13:38:39.858Z,3.53
2018-09-28T13:41:09.071Z,3.10
2018-09-28T13:43:38.359Z,2.63
2018-09-28T13:46:08.090Z,3.10
2018-09-28T13:48:37.307Z,3.08
2018-09-28T13:51:06.806Z,2.80
2018-09-28T13:53:36.057Z,2.67
2018-09-28T13:56:05.283Z,2.50
2018-09-28T13:58:35.242Z,2.86
2018-09-28T14:01:04.400Z,2.60
2018-09-28T14:03:33.627Z,3.10
2018-09-28T14:06:02.839Z,2.83
2018-09-28T14:08:32.080Z,3.08
2018-09-28T14:11:01.331Z,3.00
2018-09-28T14:13:30.574Z,2.70
2018-09-28T14:15:59.791Z,3.03
2018-09-28T14:18:29.059Z,3.00
2018-09-28T14:20:58.271Z,2.98
2018-09-28T14:23:27.524Z,3.05
2018-09-28T14:25:56.846Z,3.10
2018-09-28T14:28:26.331Z,3.07
2018-09-28T14:30:55.495Z,3.00
2018-09-28T14:33:24.722Z,2.85
2018-09-28T14:35:53.949Z,2.85
2018-09-28T14:38:23.291Z,3.17
2018-09-28T14:40:52.384Z,2.90
2018-09-28T14:43:21.626Z,3.20
2018-09-28T14:45:50.874Z,3.13
2018-09-28T14:48:20.175Z,3.10
2018-09-28T14:50:49.457Z,3.10
2018-09-28T14:53:18.646Z,2.90
2018-09-28T14:55:47.865Z,2.90
2018-09-28T14:58:18.327Z,2.67
2018-09-28T15:00:47.627Z,3.30
2018-09-28T15:03:16.751Z,3.60
2018-09-28T15:05:45.990Z,3.63
2018-09-28T15:08:15.242Z,3.05
2018-09-28T15:10:44.476Z,3.15
2018-09-28T15:13:13.666Z,3.42
2018-09-28T15:15:42.932Z,3.30
2018-09-28T15:18:12.200Z,3.70
2018-09-28T15:20:41.395Z,3.33
2018-09-28T15:23:10.628Z,3.15
2018-09-28T15:25:39.858Z,3.58
2018-09-28T15:28:09.085Z,3.27
2018-09-28T15:30:38.311Z,3.33
2018-09-28T15:33:07.538Z,3.30
2018-09-28T15:35:36.763Z,3.05
2018-09-28T15:38:06.056Z,3.55
2018-09-28T15:40:35.270Z,3.40
2018-09-28T15:43:04.502Z,3.50
2018-09-28T15:45:33.749Z,3.05
2018-09-28T15:48:02.999Z,3.10
2018-09-28T15:50:32.231Z,3.50
2018-09-28T15:53:01.462Z,3.20
2018-09-28T15:55:30.686Z,3.30
2018-09-28T15:58:01.008Z,3.04
2018-09-28T16:00:30.326Z,3.40
2018-09-28T16:02:59.535Z,3.00
2018-09-28T16:05:28.754Z,3.63
2018-09-28T16:07:57.999Z,2.98
2018-09-28T16:10:27.230Z,3.47
2018-09-28T16:12:56.572Z,3.85
2018-09-28T16:15:25.783Z,3.20
2018-09-28T16:17:55.004Z,3.43
2018-09-28T16:20:24.220Z,3.12
2018-09-28T16:22:53.481Z,2.90
2018-09-28T16:25:22.844Z,3.30
2018-09-28T16:27:52.093Z,3.00
2018-09-28T16:30:21.324Z,3.10
2018-09-28T16:32:50.523Z,3.40
2018-09-28T16:35:19.778Z,2.90
2018-09-28T16:37:49.008Z,3.20
2018-09-28T16:40:18.226Z,3.15
2018-09-28T16:42:47.466Z,3.43
2018-09-28T16:45:16.722Z,3.80
2018-09-28T16:47:45.955Z,3.70
2018-09-28T16:50:15.167Z,3.40
2018-09-28T16:52:44.378Z,3.60
2018-09-28T16:55:13.602Z,3.77
2018-09-28T16:57:43.811Z,3.37
2018-09-28T17:00:13.006Z,3.40
2018-09-28T17:02:42.387Z,3.55
2018-09-28T17:05:11.743Z,3.30
2018-09-28T17:07:41.025Z,3.52
2018-09-28T17:10:10.261Z,3.40
2018-09-28T17:12:39.502Z,3.57
2018-09-28T17:15:08.732Z,3.47
2018-09-28T17:17:37.960Z,3.20
2018-09-28T17:20:07.308Z,3.50
2018-09-28T17:22:36.514Z,3.50
2018-09-28T17:25:05.790Z,4.10
2018-09-28T17:27:35.007Z,3.77
2018-09-28T17:30:04.234Z,3.90
2018-09-28T17:32:33.466Z,3.83
2018-09-28T17:35:02.700Z,3.80
2018-09-28T17:37:31.965Z,4.20
2018-09-28T17:40:01.143Z,3.50
2018-09-28T17:42:30.365Z,4.37
2018-09-28T17:44:59.599Z,5.63
2018-09-28T17:47:28.819Z,4.53
2018-09-28T17:49:58.091Z,4.70
2018-09-28T17:52:27.331Z,4.53
2018-09-28T17:54:56.591Z,4.63
2018-09-28T17:57:25.819Z,4.17
2018-09-28T17:59:55.027Z,4.10
2018-09-28T18:02:24.246Z,4.00
2018-09-28T18:04:53.482Z,4.10
2018-09-28T18:07:22.727Z,4.20
2018-09-28T18:14:49.778Z,4.03
2018-09-28T18:17:19.005Z,4.00
2018-09-28T18:19:48.540Z,3.65
2018-09-28T18:22:17.877Z,3.70
2018-09-28T18:24:47.099Z,3.67
2018-09-28T18:27:16.460Z,3.77
2018-09-28T18:29:45.632Z,3.67
2018-09-28T18:32:15.035Z,3.60
2018-09-28T18:34:44.286Z,3.93
2018-09-28T18:37:13.518Z,3.80
2018-09-28T18:39:42.755Z,3.77
2018-09-28T18:42:12.039Z,4.17
2018-09-28T18:44:41.230Z,3.40
2018-09-28T18:47:10.476Z,3.73
2018-09-28T18:49:39.707Z,3.70
2018-09-28T18:52:08.947Z,4.67
2018-09-28T18:54:38.190Z,4.33
2018-09-28T18:57:07.699Z,4.57
2018-09-28T18:59:36.926Z,4.60
2018-09-28T19:02:06.277Z,4.33
2018-09-28T19:04:35.514Z,4.83
2018-09-28T19:07:04.832Z,4.57
2018-09-28T19:09:34.077Z,4.90
2018-09-28T19:12:03.305Z,4.77
2018-09-28T19:14:32.552Z,5.00
2018-09-28T19:17:01.783Z,5.10
2018-09-28T19:19:31.024Z,4.43
2018-09-28T19:22:00.275Z,5.10
2018-09-28T19:24:29.535Z,4.77
2018-09-28T19:26:58.754Z,4.70
2018-09-28T19:29:28.006Z,5.00
2018-09-28T19:31:57.315Z,4.93
2018-09-28T19:34:26.978Z,4.90
2018-09-28T19:36:56.218Z,5.03
2018-09-28T19:39:25.500Z,5.40
2018-09-28T19:41:54.756Z,5.07
2018-09-28T19:44:24.010Z,5.00
2018-09-28T19:46:53.355Z,4.87
2018-09-28T19:49:22.672Z,5.10
2018-09-28T19:51:51.923Z,4.70
2018-09-28T19:54:21.227Z,4.67
2018-09-28T19:56:50.483Z,4.67
2018-09-28T19:59:19.746Z,4.60
2018-09-28T20:01:48.999Z,4.53
2018-09-28T20:04:18.228Z,5.10
2018-09-28T20:06:47.460Z,4.73
2018-09-28T20:09:16.695Z,4.47
2018-09-28T20:11:45.922Z,5.00
2018-09-28T20:14:46.045Z,4.90
2018-09-28T20:17:15.287Z,4.40
2018-09-28T20:19:44.524Z,4.37
2018-09-28T20:22:14.499Z,4.10
2018-09-28T20:24:44.684Z,4.53
2018-09-28T20:27:13.954Z,4.23
2018-09-28T20:29:43.351Z,4.28
2018-09-28T20:32:12.761Z,4.10
2018-09-28T20:34:42.051Z,3.73
2018-09-28T20:37:11.367Z,3.70
2018-09-28T20:39:40.723Z,3.90
2018-09-28T20:42:10.051Z,4.10
2018-09-28T20:44:39.419Z,4.13
2018-09-28T20:47:08.767Z,3.67
2018-09-28T20:49:38.112Z,3.47
2018-09-28T20:52:07.559Z,4.17
2018-09-28T20:54:36.864Z,5.23
2018-09-28T20:57:06.191Z,5.57
2018-09-28T20:59:35.527Z,6.20
2018-09-28T21:02:04.818Z,6.03
2018-09-28T21:04:34.130Z,5.67
2018-09-28T21:07:03.464Z,5.60
2018-09-28T21:09:32.791Z,5.40
2018-09-28T21:12:02.225Z,5.47
2018-09-28T21:14:31.572Z,5.30
2018-09-28T21:17:00.873Z,5.57
2018-09-28T21:19:31.414Z,5.50
2018-09-28T21:22:00.690Z,5.33
2018-09-28T21:24:30.049Z,6.17
2018-09-28T21:26:59.371Z,6.37
2018-09-28T21:29:28.663Z,6.83
2018-09-28T21:31:58.021Z,6.60
2018-09-28T21:34:27.299Z,8.07
2018-09-28T21:36:56.678Z,7.17
2018-09-28T21:39:25.999Z,7.53
2018-09-28T21:41:55.315Z,7.33
2018-09-28T21:44:24.614Z,7.13
2018-09-28T21:46:53.918Z,7.07
2018-09-28T21:49:23.341Z,6.40
2018-09-28T21:51:52.628Z,6.57
2018-09-28T21:54:21.919Z,6.30
2018-09-28T21:56:51.196Z,6.83
2018-09-28T21:59:20.583Z,6.10
2018-09-28T22:01:49.926Z,6.33
2018-09-28T22:04:19.226Z,5.70
2018-09-28T22:06:49.788Z,5.67
2018-09-28T22:09:19.080Z,5.90
2018-09-28T22:11:48.409Z,4.90
2018-09-28T22:14:18.857Z,5.95
2018-09-28T22:16:49.153Z,5.13
2018-09-28T22:19:19.439Z,5.47
2018-09-28T22:21:49.448Z,6.17
2018-09-28T22:24:18.975Z,5.40
2018-09-28T22:26:48.266Z,5.97
2018-09-28T22:29:17.531Z,5.47
2018-09-28T22:31:47.940Z,4.80
2018-09-28T22:34:17.515Z,4.97
2018-09-28T22:36:47.078Z,4.55
2018-09-28T22:39:16.658Z,4.57
2018-09-28T22:41:45.935Z,4.90
2018-09-28T22:44:15.232Z,4.93
2018-09-28T22:46:44.535Z,4.50
2018-09-28T22:49:13.839Z,4.50
2018-09-28T22:51:43.132Z,4.60
2018-09-28T22:54:12.437Z,4.67
2018-09-28T22:56:41.765Z,4.60
2018-09-28T22:59:11.104Z,4.40
2018-09-28T23:01:40.520Z,4.33
2018-09-28T23:04:10.138Z,4.50
2018-09-28T23:06:39.412Z,4.57
2018-09-28T23:09:09.720Z,4.67
2018-09-28T23:11:39.064Z,4.73
2018-09-28T23:14:08.360Z,4.55
2018-09-28T23:16:37.735Z,4.50
2018-09-28T23:19:07.086Z,4.40
2018-09-28T23:21:36.455Z,5.07
2018-09-28T23:24:05.732Z,4.80
2018-09-28T23:26:35.037Z,5.13
2018-09-28T23:29:04.324Z,4.80
2018-09-28T23:31:33.656Z,5.00
2018-09-28T23:34:03.051Z,5.10
2018-09-28T23:36:32.401Z,5.08
2018-09-28T23:39:02.039Z,5.10
2018-09-28T23:41:31.363Z,4.43
2018-09-28T23:44:00.638Z,5.17
2018-09-28T23:46:29.931Z,5.53
2018-09-28T23:48:59.359Z,5.33
2018-09-28T23:51:28.695Z,5.37
2018-09-28T23:53:58.035Z,5.10
2018-09-28T23:56:27.367Z,5.50
2018-09-28T23:58:56.825Z,6.00
